Startpagina
METAR-TAF:

METAR-TAF

Vliegvelden :

Tacna, Peru

breedte: 18-04S, lengte: 070-18W, hoogte: 468 m

Actueel weer

Dit bericht is 45 minuten geleden gemaakt, om 18:00 UTC
Wind 7 kt uit het zuidzuidwesten, variërend tussen het zuidoosten en het westzuidwesten
Temperatuur 24°C
Vochtigheid 50%
Druk 1013 hPa
Zicht 10 km of meer
geen wolken onder 1500 m en geen cumulonimbus

METAR: SPTN 121800Z 21007KT 130V250 CAVOK 24/13 Q1013 RMK PP000

Tijdstip: 13:45 (18:45 UTC)

Verwachting

Dit bericht is 1 uur en het 45 minuten geleden gemaakt, om 17:00 UTC
Verwachting geldig van 12 om 18 UTC tot 13 om 18 UTC
Wind 10 kt uit het zuidwesten
Zicht 10 km of meer
Verspreide wolken op 3000 ft
Van 12 om 2230 UTC
Wind 5 kt uit het zuidzuidwesten
Zicht 10 km of meer
Gebroken wolken op 3000 ft
Van 13 om 1230 UTC
Wind 6 kt uit het westzuidwesten
Zicht 10 km of meer
Verspreide wolken op 3000 ft

TAF: SPTN 121700Z 1218/1318 22010KT 9999 SCT030 TX25/1219Z TN18/1311Z FM122230 20005KT 9999 BKN030 FM131230 25006KT 9999 SCT030

Waarnemingen en weersverwachtingen van meer dan 4000 vliegvelden (METAR en TAF).

De beschikbare stations zijn de gele en rode punten op de kaart.

Ga met uw muis naar het station om de naam te zien.

Klik dan om waarnemingen en weersverwachtingen te zien.

kaart wijzigen: klik op de groene knoppen met een zwart kruis om in te zoomen, op de groene knop met een streepje om uit te zoomen of op de groene pijlen voor aangrenzende kaarten.


METAR-TAF: